Time;durP1;ratioP1;P1;durP2;ratioP2;P2;SDS_P1;SDS_P2;PMS_P1;PMS_P2;Temp;Humidity;BMP_temperature;BMP_pressure;BME280_temperature;BME280_humidity;BME280_pressure;Samples;Min_cycle;Max_cycle;Signal;HPM_P1;HPM_P2
2020/12/15 00:00:18;;;;;;;76.23;43.20;;;;;;;-0.89;89.46;99296.92;124871;1099;65157;-81
2020/12/15 00:02:56;;;;;;;80.13;45.87;;;;;;;-0.90;89.43;99295.18;125344;1098;65124;-81
2020/12/15 00:05:23;;;;;;;79.20;45.27;;;;;;;-0.86;89.39;99296.02;125360;1099;65138;-81
2020/12/15 00:07:49;;;;;;;77.37;46.13;;;;;;;-0.84;88.94;99299.48;125212;1098;65701;-81
2020/12/15 00:10:16;;;;;;;80.33;43.97;;;;;;;-0.87;89.44;99294.27;125288;1099;65156;-80
2020/12/15 00:12:42;;;;;;;76.23;42.07;;;;;;;-0.92;88.97;99293.51;124876;1100;65326;-81
2020/12/15 00:15:09;;;;;;;74.95;43.15;;;;;;;-0.95;89.21;99291.80;124835;1098;65165;-81
2020/12/15 00:17:35;;;;;;;78.13;46.90;;;;;;;-0.94;88.93;99292.66;124876;1100;65192;-81
2020/12/15 00:20:07;;;;;;;79.80;44.25;;;;;;;-0.93;89.55;99297.85;125301;1098;65131;-82
2020/12/15 00:22:37;;;;;;;84.65;45.50;;;;;;;-0.91;89.47;99288.23;125011;1100;65266;-81
2020/12/15 00:25:04;;;;;;;82.05;43.85;;;;;;;-0.88;89.07;99289.94;124847;1098;65159;-81
2020/12/15 00:27:31;;;;;;;85.27;44.40;;;;;;;-0.91;88.92;99284.76;124824;1098;65156;-82
2020/12/15 00:29:57;;;;;;;78.87;44.80;;;;;;;-0.95;88.75;99285.68;125316;1098;65157;-82
2020/12/15 00:32:24;;;;;;;73.57;43.97;;;;;;;-0.99;89.25;99284.02;125215;1098;65220;-80
2020/12/15 00:34:50;;;;;;;70.95;39.75;;;;;;;-1.04;89.13;99277.99;124895;1100;65215;-80
2020/12/15 00:37:17;;;;;;;79.23;40.03;;;;;;;-1.06;89.27;99288.47;124855;1100;65242;-80
2020/12/15 00:39:43;;;;;;;74.50;42.47;;;;;;;-1.05;88.83;99284.09;124813;1100;65198;-80
2020/12/15 00:42:09;;;;;;;76.07;42.57;;;;;;;-1.07;88.75;99289.36;124865;1100;65242;-79
2020/12/15 00:44:36;;;;;;;72.93;41.77;;;;;;;-1.05;89.35;99292.83;124903;1098;65154;-80
2020/12/15 00:47:03;;;;;;;71.35;41.85;;;;;;;-1.04;88.69;99276.23;125244;1099;65178;-79
2020/12/15 00:49:29;;;;;;;74.50;41.45;;;;;;;-1.03;89.11;99283.18;124787;1099;65252;-80
2020/12/15 00:51:56;;;;;;;85.83;49.47;;;;;;;-1.04;88.86;99278.84;124789;1100;65147;-80
2020/12/15 00:54:22;;;;;;;82.73;51.60;;;;;;;-1.04;88.80;99285.84;124748;1100;65136;-80
2020/12/15 00:56:48;;;;;;;73.23;42.00;;;;;;;-1.01;88.92;99294.49;124786;1100;65166;-80
2020/12/15 00:59:15;;;;;;;72.97;41.93;;;;;;;-1.01;88.87;99294.49;125250;1099;65140;-80
2020/12/15 01:01:41;;;;;;;73.17;41.40;;;;;;;-1.03;88.51;99298.02;124781;1098;65288;-80
2020/12/15 01:04:08;;;;;;;78.80;40.53;;;;;;;-1.04;88.67;99299.77;125244;1098;65153;-80
2020/12/15 01:06:34;;;;;;;77.23;40.03;;;;;;;-1.04;89.06;99299.77;124802;1100;65239;-80
2020/12/15 01:09:00;;;;;;;76.63;43.43;;;;;;;-1.07;89.22;99307.67;125234;1098;65159;-80
2020/12/15 01:11:28;;;;;;;77.00;42.33;;;;;;;-1.05;88.82;99305.91;124824;1100;65202;-80
2020/12/15 01:13:55;;;;;;;72.93;43.03;;;;;;;-1.05;88.94;99316.37;125189;1098;65290;-80
2020/12/15 01:16:26;;;;;;;80.85;41.40;;;;;;;-1.01;88.82;99312.80;124852;1100;65189;-80
2020/12/15 01:18:55;;;;;;;78.37;41.27;;;;;;;-1.03;89.20;99313.71;124847;1099;65249;-80
2020/12/15 01:21:29;;;;;;;77.87;42.77;;;;;;;-1.02;89.09;99313.70;124785;1100;65163;-80
2020/12/15 01:23:57;;;;;;;77.50;42.45;;;;;;;-1.00;89.18;99309.32;125260;1098;65136;-80
2020/12/15 01:26:24;;;;;;;80.20;43.55;;;;;;;-0.98;89.15;99304.91;125182;1098;65189;-80
2020/12/15 01:28:51;;;;;;;74.10;42.43;;;;;;;-0.94;89.19;99306.59;124818;1100;65176;-81
2020/12/15 01:31:25;;;;;;;75.67;42.77;;;;;;;-0.92;88.87;99307.45;125196;1098;65126;-81
2020/12/15 01:33:52;;;;;;;75.53;42.00;;;;;;;-0.89;89.34;99301.30;125353;1099;65227;-81
2020/12/15 01:36:29;;;;;;;79.97;44.50;;;;;;;-0.89;89.31;99296.07;124911;1098;65249;-81
2020/12/15 01:38:56;;;;;;;77.83;43.40;;;;;;;-0.89;89.19;99293.45;124906;1100;65178;-82
2020/12/15 01:41:23;;;;;;;61.20;37.63;;;;;;;-0.87;88.59;99290.80;124897;1099;65247;-81
2020/12/15 01:43:57;;;;;;;67.53;38.23;;;;;;;-0.88;89.10;99287.32;125214;1099;65118;-81
2020/12/15 01:46:25;;;;;;;70.65;39.15;;;;;;;-0.97;88.60;99290.95;125383;1098;65157;-81
2020/12/15 01:48:53;;;;;;;65.87;38.77;;;;;;;-1.05;88.74;99284.09;125370;1098;65137;-81
2020/12/15 01:51:20;;;;;;;67.10;38.77;;;;;;;-1.18;88.43;99286.05;125315;1098;65269;-81
2020/12/15 01:53:46;;;;;;;66.55;38.35;;;;;;;-1.21;88.84;99280.84;124893;1098;65175;-81
2020/12/15 01:56:13;;;;;;;70.40;38.80;;;;;;;-1.20;88.73;99282.59;124906;1098;65251;-81
2020/12/15 01:58:43;;;;;;;83.40;42.53;;;;;;;-1.17;88.58;99274.70;125286;1098;65269;-81
2020/12/15 02:01:09;;;;;;;72.77;40.47;;;;;;;-1.17;88.77;99275.55;125319;1098;65198;-81
2020/12/15 02:03:36;;;;;;;78.43;42.67;;;;;;;-1.15;89.25;99267.70;124813;1100;65237;-81
2020/12/15 02:06:03;;;;;;;76.13;40.73;;;;;;;-1.10;88.81;99276.34;124871;1099;65137;-81
2020/12/15 02:08:30;;;;;;;73.20;41.67;;;;;;;-1.06;88.67;99271.91;125294;1098;65144;-81
2020/12/15 02:10:57;;;;;;;74.93;41.83;;;;;;;-1.08;89.29;99274.54;125279;1099;65156;-81
2020/12/15 02:13:24;;;;;;;84.83;46.60;;;;;;;-1.09;88.46;99274.58;124866;1100;65243;-81
2020/12/15 02:15:51;;;;;;;71.67;42.27;;;;;;;-1.12;88.94;99270.27;125176;1099;65691;-81
2020/12/15 02:18:17;;;;;;;73.07;48.80;;;;;;;-1.12;88.41;99273.73;124875;1100;65140;-80
2020/12/15 02:20:44;;;;;;;74.53;43.57;;;;;;;-1.13;88.57;99264.17;124835;1100;65223;-81
2020/12/15 02:23:10;;;;;;;69.13;39.43;;;;;;;-1.12;88.70;99265.89;125307;1099;65186;-80
2020/12/15 02:25:37;;;;;;;73.17;38.00;;;;;;;-1.14;88.48;99269.41;124832;1100;65189;-81
2020/12/15 02:34:57;;;;;;;66.33;37.30;;;;;;;-1.26;88.45;99262.63;125296;1098;65653;-80
2020/12/15 02:37:23;;;;;;;71.67;39.00;;;;;;;-1.26;89.01;99254.79;124866;1099;65239;-81
2020/12/15 02:39:50;;;;;;;76.00;41.50;;;;;;;-1.27;88.79;99266.11;125200;1099;65102;-80
2020/12/15 02:42:17;;;;;;;75.93;40.83;;;;;;;-1.24;88.70;99267.82;125310;1098;65156;-80
2020/12/15 02:44:43;;;;;;;69.83;40.03;;;;;;;-1.28;88.55;99258.31;125319;1098;65211;-80
2020/12/15 02:47:10;;;;;;;66.07;36.27;;;;;;;-1.31;88.94;99258.36;125297;1098;65175;-81
2020/12/15 02:49:36;;;;;;;68.70;39.70;;;;;;;-1.31;88.97;99260.98;124972;1100;65146;-81
2020/12/15 02:52:02;;;;;;;75.07;41.07;;;;;;;-1.31;89.31;99261.84;124925;1100;65169;-83
2020/12/15 02:54:29;;;;;;;72.40;38.50;;;;;;;-1.30;89.19;99257.46;124784;1100;65662;-81
2020/12/15 02:56:55;;;;;;;61.33;37.37;;;;;;;-1.36;88.90;99256.66;125286;1098;65150;-81
2020/12/15 02:59:22;;;;;;;63.77;35.10;;;;;;;-1.42;88.47;99250.64;124833;1100;65166;-80
2020/12/15 03:01:51;;;;;;;73.63;40.07;;;;;;;-1.45;89.10;99253.31;125279;1099;65220;-81
2020/12/15 03:04:18;;;;;;;68.85;38.95;;;;;;;-1.47;88.66;99263.80;124921;1099;65195;-81
2020/12/15 03:06:45;;;;;;;69.95;38.10;;;;;;;-1.45;89.30;99263.77;125210;1098;65414;-81
2020/12/15 03:09:12;;;;;;;68.27;46.70;;;;;;;-1.44;88.76;99263.75;124893;1098;65233;-80
2020/12/15 03:11:38;;;;;;;70.60;47.73;;;;;;;-1.41;88.90;99253.25;125295;1098;65266;-80
2020/12/15 03:14:05;;;;;;;66.87;37.07;;;;;;;-1.34;89.19;99248.81;125347;1098;65214;-80
2020/12/15 03:16:31;;;;;;;58.90;34.67;;;;;;;-1.37;88.90;99262.80;125346;1098;65195;-81
2020/12/15 03:18:58;;;;;;;60.23;35.43;;;;;;;-1.44;88.67;99248.07;124881;1100;65162;-82
2020/12/15 03:21:24;;;;;;;63.70;36.13;;;;;;;-1.46;89.02;99248.98;124974;1098;65224;-82
2020/12/15 03:23:51;;;;;;;61.67;36.53;;;;;;;-1.42;88.83;99258.48;125318;1099;65160;-80
2020/12/15 03:26:18;;;;;;;68.47;37.17;;;;;;;-1.42;88.78;99254.16;125093;1100;65242;-80
2020/12/15 03:28:45;;;;;;;65.97;38.13;;;;;;;-1.43;88.65;99251.55;125024;1099;65208;-80
2020/12/15 03:31:12;;;;;;;65.87;35.20;;;;;;;-1.39;88.81;99258.47;125156;1098;65208;-81
2020/12/15 03:33:39;;;;;;;57.67;34.60;;;;;;;-1.38;88.44;99255.81;125202;1099;65159;-81
2020/12/15 03:36:05;;;;;;;61.70;32.60;;;;;;;-1.45;88.36;99253.31;124829;1100;65139;-81
2020/12/15 03:38:32;;;;;;;64.33;35.50;;;;;;;-1.52;88.45;99247.32;124841;1100;65158;-81
2020/12/15 03:40:58;;;;;;;63.93;35.20;;;;;;;-1.53;89.16;99260.39;125178;1098;65212;-81
2020/12/15 03:43:24;;;;;;;59.80;33.97;;;;;;;-1.53;89.00;99266.48;124886;1098;65223;-81
2020/12/15 03:45:51;;;;;;;71.03;38.53;;;;;;;-1.51;88.89;99262.11;125310;1098;65121;-82
2020/12/15 03:48:17;;;;;;;68.63;36.50;;;;;;;-1.48;89.31;99254.22;124879;1100;65150;-81
2020/12/15 03:50:44;;;;;;;60.00;33.35;;;;;;;-1.47;88.71;99266.42;124935;1099;65248;-80
2020/12/15 03:53:10;;;;;;;55.23;31.50;;;;;;;-1.52;89.29;99267.38;124871;1100;65149;-81
2020/12/15 03:55:36;;;;;;;60.30;32.50;;;;;;;-1.58;89.11;99250.89;124856;1100;65314;-81
2020/12/15 03:58:03;;;;;;;63.20;33.95;;;;;;;-1.58;88.66;99253.50;125237;1098;65159;-81
2020/12/15 04:00:29;;;;;;;66.50;36.80;;;;;;;-1.58;89.04;99247.39;124864;1100;65182;-81
2020/12/15 04:02:56;;;;;;;60.40;33.20;;;;;;;-1.55;88.88;99252.59;124856;1100;65197;-81
2020/12/15 04:05:22;;;;;;;60.60;34.45;;;;;;;-1.50;89.24;99247.28;124908;1100;65244;-81
2020/12/15 04:07:48;;;;;;;65.30;36.87;;;;;;;-1.45;89.58;99241.13;124864;1098;65172;-81
2020/12/15 04:10:17;;;;;;;73.90;37.73;;;;;;;-1.37;89.70;99240.98;124888;1100;65245;-81
2020/12/15 04:12:44;;;;;;;67.97;35.10;;;;;;;-1.36;89.03;99235.75;124883;1100;65233;-81
2020/12/15 04:15:11;;;;;;;58.00;32.67;;;;;;;-1.43;89.10;99241.09;125198;1098;65224;-81
2020/12/15 04:17:37;;;;;;;58.47;32.83;;;;;;;-1.51;88.77;99248.18;125228;1098;65218;-81
2020/12/15 04:20:05;;;;;;;54.30;31.13;;;;;;;-1.57;88.60;99244.77;124838;1099;65246;-81
2020/12/15 04:22:33;;;;;;;63.45;33.45;;;;;;;-1.62;89.47;99249.19;124929;1099;65146;-81
2020/12/15 04:25:00;;;;;;;58.63;32.67;;;;;;;-1.64;89.46;99237.88;125234;1098;65263;-81
2020/12/15 04:27:28;;;;;;;62.57;33.33;;;;;;;-1.63;89.06;99244.00;125269;1099;65167;-81
2020/12/15 04:29:54;;;;;;;54.27;31.40;;;;;;;-1.64;89.63;99239.64;125337;1099;65077;-81
2020/12/15 04:32:21;;;;;;;58.17;32.40;;;;;;;-1.66;89.18;99237.06;124843;1099;65154;-81
2020/12/15 04:34:48;;;;;;;65.57;34.80;;;;;;;-1.65;89.12;99245.77;124869;1100;65205;-81
2020/12/15 04:37:14;;;;;;;60.90;33.80;;;;;;;-1.64;89.84;99244.87;125251;1098;65207;-81
2020/12/15 04:39:40;;;;;;;67.10;36.63;;;;;;;-1.60;89.91;99244.81;124821;1100;65160;-81
2020/12/15 04:42:07;;;;;;;57.53;32.08;;;;;;;-1.55;89.75;99247.37;125311;1099;65157;-81
2020/12/15 04:44:35;;;;;;;55.15;32.05;;;;;;;-1.62;89.49;99243.96;124857;1100;65332;-81
2020/12/15 04:47:33;;;;;;;68.83;34.40;;;;;;;-1.65;89.19;99250.99;124841;1100;65281;-81
2020/12/15 04:50:14;;;;;;;65.10;36.43;;;;;;;-1.61;89.26;99247.43;124928;1099;65194;-81
2020/12/15 04:52:58;;;;;;;62.80;36.73;;;;;;;-1.56;89.27;99254.32;125267;1098;65188;-81
2020/12/15 04:55:25;;;;;;;67.17;37.23;;;;;;;-1.50;89.87;99255.13;124891;1099;65702;-81
2020/12/15 04:58:00;;;;;;;59.27;32.07;;;;;;;-1.45;89.82;99262.05;125285;1099;65135;-82
2020/12/15 05:00:27;;;;;;;64.13;34.70;;;;;;;-1.45;89.29;99264.66;125201;1099;65243;-79
2020/12/15 05:02:55;;;;;;;62.90;34.73;;;;;;;-1.42;89.11;99261.99;124807;1100;65150;-82
2020/12/15 05:05:23;;;;;;;58.63;33.27;;;;;;;-1.42;88.62;99264.61;124901;1100;65181;-81
2020/12/15 05:07:49;;;;;;;58.57;32.87;;;;;;;-1.47;89.03;99257.72;125290;1098;65150;-81
2020/12/15 05:10:18;;;;;;;59.27;33.50;;;;;;;-1.49;89.20;99259.48;124871;1099;65741;-80
2020/12/15 05:12:46;;;;;;;59.30;31.35;;;;;;;-1.54;88.53;99262.16;124928;1098;65140;-81
2020/12/15 05:15:18;;;;;;;59.50;32.27;;;;;;;-1.58;88.66;99257.84;125315;1098;65291;-80
2020/12/15 05:17:45;;;;;;;60.90;33.13;;;;;;;-1.64;88.52;99257.94;124852;1100;65170;-81
2020/12/15 05:20:25;;;;;;;63.10;34.20;;;;;;;-1.69;88.65;99260.59;125289;1098;65126;-80
2020/12/15 05:22:52;;;;;;;54.25;31.55;;;;;;;-1.70;88.84;99266.72;124869;1099;65117;-81
2020/12/15 05:25:25;;;;;;;66.13;35.90;;;;;;;-1.73;88.68;99274.61;124852;1100;65246;-81
2020/12/15 05:27:53;;;;;;;66.17;36.13;;;;;;;-1.75;88.98;99278.13;125291;1099;65144;-80
2020/12/15 05:30:20;;;;;;;76.20;36.70;;;;;;;-1.79;88.71;99277.27;124872;1100;65173;-80
2020/12/15 05:32:52;;;;;;;69.40;36.90;;;;;;;-1.80;88.84;99279.03;124871;1100;65241;-80
2020/12/15 05:35:24;;;;;;;69.00;37.43;;;;;;;-1.78;88.85;99279.02;124861;1100;65335;-81
2020/12/15 05:37:51;;;;;;;68.07;38.43;;;;;;;-1.75;89.27;99267.67;125330;1099;65140;-81
2020/12/15 05:40:17;;;;;;;74.90;40.05;;;;;;;-1.69;88.99;99275.42;125366;1098;65166;-81
2020/12/15 05:42:56;;;;;;;66.80;35.63;;;;;;;-1.66;88.80;99277.98;124928;1098;65246;-80
2020/12/15 05:45:24;;;;;;;62.30;34.13;;;;;;;-1.76;88.48;99282.48;124847;1100;65244;-81
2020/12/15 05:48:11;;;;;;;57.90;33.90;;;;;;;-1.85;88.37;99272.99;124864;1100;65147;-81
2020/12/15 05:50:38;;;;;;;63.17;34.10;;;;;;;-1.90;88.85;99277.41;125292;1099;65169;-80
2020/12/15 05:53:07;;;;;;;69.20;36.13;;;;;;;-1.92;89.07;99279.20;124877;1098;65178;-80
2020/12/15 05:55:34;;;;;;;63.50;36.07;;;;;;;-1.89;89.56;99273.07;125305;1098;65630;-81
2020/12/15 05:58:01;;;;;;;63.20;34.50;;;;;;;-1.88;89.42;99275.65;124856;1099;65184;-81
2020/12/15 06:00:30;;;;;;;71.20;38.10;;;;;;;-1.89;89.43;99281.77;125282;1098;65146;-80
2020/12/15 06:03:05;;;;;;;65.50;36.95;;;;;;;-1.89;89.56;99284.37;124885;1098;65277;-80
2020/12/15 06:05:34;;;;;;;70.50;40.93;;;;;;;-1.92;89.11;99286.14;124877;1098;65140;-80
2020/12/15 06:08:02;;;;;;;68.33;38.87;;;;;;;-1.93;89.43;99290.51;125371;1098;65262;-81
2020/12/15 06:10:30;;;;;;;80.60;50.80;;;;;;;-1.91;88.83;99285.28;124888;1100;65209;-81
2020/12/15 06:12:59;;;;;;;86.67;49.63;;;;;;;-1.86;89.41;99283.48;125245;1098;65646;-80
2020/12/15 06:15:27;;;;;;;74.47;42.10;;;;;;;-1.83;89.05;99273.84;124828;1100;65250;-81
2020/12/15 06:17:56;;;;;;;75.33;40.67;;;;;;;-1.82;88.73;99270.37;124879;1100;65204;-80
2020/12/15 06:20:24;;;;;;;78.00;43.80;;;;;;;-1.81;88.97;99272.09;124953;1100;65358;-81
2020/12/15 06:22:55;;;;;;;76.57;44.20;;;;;;;-1.79;88.82;99274.66;124975;1098;65153;-81
2020/12/15 06:25:29;;;;;;;69.33;39.33;;;;;;;-1.83;89.18;99276.45;124820;1100;65297;-81
2020/12/15 06:28:01;;;;;;;64.07;37.17;;;;;;;-1.84;89.26;99261.68;124887;1098;65141;-81
2020/12/15 06:30:33;;;;;;;71.13;38.57;;;;;;;-1.83;88.69;99263.39;124873;1100;65158;-81
2020/12/15 06:33:01;;;;;;;73.00;38.20;;;;;;;-1.83;89.35;99271.23;124939;1100;65134;-81
2020/12/15 06:35:27;;;;;;;65.70;36.97;;;;;;;-1.76;88.71;99279.88;124892;1100;65080;-81
2020/12/15 06:37:54;;;;;;;61.67;36.53;;;;;;;-1.73;88.75;99269.37;124822;1100;65293;-81
2020/12/15 06:40:20;;;;;;;64.43;36.30;;;;;;;-1.72;89.40;99263.25;124878;1098;65118;-81
2020/12/15 06:42:51;;;;;;;71.80;40.10;;;;;;;-1.66;89.28;99268.42;124826;1100;65134;-81
2020/12/15 06:45:24;;;;;;;67.50;37.35;;;;;;;-1.64;88.62;99264.02;124867;1099;65306;-81
2020/12/15 06:48:05;;;;;;;63.00;36.63;;;;;;;-1.66;88.26;99260.59;125300;1098;65124;-81
2020/12/15 06:50:46;;;;;;;61.20;34.50;;;;;;;-1.71;88.39;99259.78;125213;1098;65179;-81
2020/12/15 06:53:17;;;;;;;66.70;38.30;;;;;;;-1.74;88.94;99266.77;124919;1098;65204;-81
2020/12/15 06:55:44;;;;;;;59.73;34.67;;;;;;;-1.74;88.84;99269.38;125285;1098;65159;-81
2020/12/15 06:58:21;;;;;;;66.57;36.47;;;;;;;-1.74;88.97;99264.16;125319;1098;65137;-81
2020/12/15 07:00:48;;;;;;;70.40;38.33;;;;;;;-1.72;88.20;99271.09;124937;1098;65249;-81
2020/12/15 07:03:17;;;;;;;65.77;35.87;;;;;;;-1.68;88.71;99269.33;124941;1098;65278;-80
2020/12/15 07:05:44;;;;;;;76.30;43.40;;;;;;;-1.64;88.81;99269.24;124976;1100;65201;-80
2020/12/15 07:08:12;;;;;;;61.50;35.00;;;;;;;-1.55;88.24;99278.73;124945;1098;65223;-80
2020/12/15 07:10:42;;;;;;;55.63;34.33;;;;;;;-1.54;88.11;99280.45;124905;1100;65224;-80
2020/12/15 07:13:12;;;;;;;58.30;34.97;;;;;;;-1.62;87.99;99274.46;125113;1098;65115;-80
2020/12/15 07:15:39;;;;;;;56.40;32.53;;;;;;;-1.67;88.01;99281.49;124903;1100;65306;-80
2020/12/15 07:18:06;;;;;;;56.23;33.83;;;;;;;-1.72;87.87;99280.69;124903;1098;65204;-81
2020/12/15 07:20:33;;;;;;;57.00;34.40;;;;;;;-1.74;88.35;99274.61;124906;1099;65325;-81
2020/12/15 07:22:59;;;;;;;63.97;35.87;;;;;;;-1.75;88.33;99275.51;125305;1098;65153;-81
2020/12/15 07:25:25;;;;;;;58.23;34.97;;;;;;;-1.71;87.58;99269.34;125269;1098;65138;-80
2020/12/15 07:27:52;;;;;;;67.07;36.83;;;;;;;-1.73;88.17;99268.52;124853;1100;65278;-80
2020/12/15 07:30:21;;;;;;;62.43;35.63;;;;;;;-1.69;88.15;99263.21;124864;1100;65217;-80
2020/12/15 07:32:49;;;;;;;64.20;37.67;;;;;;;-1.69;87.38;99263.21;124936;1100;65137;-82
2020/12/15 07:35:23;;;;;;;65.37;37.10;;;;;;;-1.72;87.29;99272.85;124884;1099;65477;-82
2020/12/15 07:37:54;;;;;;;74.13;38.93;;;;;;;-1.71;87.48;99267.62;124899;1100;65118;-80
2020/12/15 07:40:21;;;;;;;57.93;34.10;;;;;;;-1.68;87.28;99271.94;125272;1098;65121;-80
2020/12/15 07:42:54;;;;;;;68.97;37.33;;;;;;;-1.72;87.26;99267.63;125279;1098;65170;-80
2020/12/15 07:45:22;;;;;;;62.45;37.85;;;;;;;-1.69;87.81;99271.05;125310;1098;65131;-80
2020/12/15 07:47:51;;;;;;;69.17;41.20;;;;;;;-1.68;87.74;99272.80;125405;1098;65153;-80
2020/12/15 07:50:27;;;;;;;64.33;37.03;;;;;;;-1.61;87.57;99270.95;125241;1098;65172;-80
2020/12/15 07:53:07;;;;;;;66.05;37.50;;;;;;;-1.59;87.99;99264.82;124921;1098;66421;-80
2020/12/15 07:55:34;;;;;;;68.63;38.63;;;;;;;-1.55;87.70;99273.50;124935;1100;65252;-81
2020/12/15 07:58:03;;;;;;;67.73;40.10;;;;;;;-1.49;87.60;99276.02;124859;1098;65139;-80
2020/12/15 08:00:30;;;;;;;65.70;37.53;;;;;;;-1.39;88.06;99287.23;124895;1100;66342;-81
2020/12/15 08:03:01;;;;;;;67.50;39.10;;;;;;;-1.34;87.76;99278.43;124864;1099;65602;-81
2020/12/15 08:05:29;;;;;;;66.23;38.67;;;;;;;-1.32;87.06;99286.23;124835;1100;65214;-81
2020/12/15 08:08:03;;;;;;;62.60;37.90;;;;;;;-1.28;87.26;99277.47;124890;1100;65262;-81
2020/12/15 08:10:32;;;;;;;68.07;42.27;;;;;;;-1.21;87.02;99283.45;124934;1099;65233;-80
2020/12/15 08:13:06;;;;;;;73.33;41.23;;;;;;;-1.16;87.08;99274.69;125002;1100;65367;-80
2020/12/15 08:15:38;;;;;;;67.83;40.57;;;;;;;-1.12;87.41;99288.57;125328;1098;65079;-80
2020/12/15 08:18:07;;;;;;;72.67;43.07;;;;;;;-1.05;87.51;99277.14;125280;1098;65200;-81
2020/12/15 08:20:35;;;;;;;64.62;40.98;;;;;;;-0.97;87.12;99279.64;124877;1100;65226;-81
2020/12/15 08:23:22;;;;;;;75.17;43.37;;;;;;;-0.94;86.70;99290.05;124936;1100;65656;-81
2020/12/15 08:25:55;;;;;;;67.33;36.93;;;;;;;-0.96;86.84;99281.34;124884;1100;65156;-81
2020/12/15 08:28:22;;;;;;;60.40;36.30;;;;;;;-0.95;86.92;99278.72;124909;1098;65143;-80
2020/12/15 08:30:54;;;;;;;72.20;41.50;;;;;;;-0.98;86.72;99270.04;124937;1100;65323;-81
2020/12/15 08:33:23;;;;;;;70.57;40.83;;;;;;;-0.97;86.68;99282.25;124853;1100;65195;-80
2020/12/15 08:35:51;;;;;;;68.90;40.03;;;;;;;-0.96;87.14;99281.34;124960;1098;65166;-81
2020/12/15 08:38:19;;;;;;;72.17;41.33;;;;;;;-0.89;87.09;99289.08;125543;1098;65130;-81
2020/12/15 08:40:55;;;;;;;76.13;44.23;;;;;;;-0.84;86.74;99290.73;125217;1098;65210;-81
2020/12/15 08:43:23;;;;;;;70.97;40.73;;;;;;;-0.82;86.52;99281.12;124856;1100;65137;-81
2020/12/15 08:45:50;;;;;;;69.65;40.45;;;;;;;-0.77;86.26;99290.62;124849;1100;65137;-81
2020/12/15 08:48:19;;;;;;;66.05;38.40;;;;;;;-0.72;86.28;99280.94;125280;1098;65137;-81
2020/12/15 08:50:46;;;;;;;70.03;41.57;;;;;;;-0.64;86.63;99290.42;124890;1100;65182;-81
2020/12/15 08:53:14;;;;;;;76.33;43.57;;;;;;;-0.55;86.69;99303.38;124859;1100;65224;-81
2020/12/15 08:55:41;;;;;;;73.83;42.33;;;;;;;-0.58;86.25;99285.97;124902;1100;65233;-81
2020/12/15 08:58:09;;;;;;;74.03;42.47;;;;;;;-0.54;86.49;99294.62;124853;1098;65194;-81
2020/12/15 09:00:39;;;;;;;67.53;40.00;;;;;;;-0.45;85.64;99284.86;124916;1100;65239;-81
2020/12/15 09:03:17;;;;;;;77.85;45.15;;;;;;;-0.28;86.62;99281.92;124919;1100;65136;-81
2020/12/15 09:05:49;;;;;;;73.33;44.87;;;;;;;-0.22;86.33;99275.70;125292;1098;65131;-81
2020/12/15 09:08:17;;;;;;;74.20;44.65;;;;;;;-0.06;86.03;99281.52;125317;1098;65303;-81
2020/12/15 09:10:44;;;;;;;67.00;38.80;;;;;;;-0.01;85.74;99277.91;125283;1098;65165;-81
2020/12/15 09:13:11;;;;;;;72.43;43.33;;;;;;;-0.07;85.14;99278.03;125246;1098;65230;-81
2020/12/15 09:15:50;;;;;;;71.05;42.90;;;;;;;-0.04;86.02;99277.12;124852;1100;65137;-81
2020/12/15 09:18:28;;;;;;;70.83;42.97;;;;;;;0.02;85.32;99269.13;125291;1098;65511;-81
2020/12/15 09:20:55;;;;;;;75.03;42.90;;;;;;;0.11;85.38;99265.48;125328;1098;65239;-81
2020/12/15 09:23:27;;;;;;;70.57;42.47;;;;;;;0.20;85.43;99265.27;124802;1100;65179;-81
2020/12/15 09:25:54;;;;;;;75.30;45.20;;;;;;;0.29;85.49;99265.10;124892;1099;65240;-81
2020/12/15 09:28:28;;;;;;;84.80;48.03;;;;;;;0.39;84.96;99270.98;124768;1100;65252;-81
2020/12/15 09:30:55;;;;;;;76.63;45.50;;;;;;;0.43;85.21;99264.80;125384;1098;65108;-81
2020/12/15 09:33:22;;;;;;;72.90;44.87;;;;;;;0.48;84.94;99270.81;124832;1100;65251;-81
2020/12/15 09:35:48;;;;;;;71.05;42.80;;;;;;;0.45;84.57;99276.13;125265;1098;65173;-81
2020/12/15 09:38:16;;;;;;;75.10;42.80;;;;;;;0.47;84.78;99273.45;124909;1100;65219;-81
2020/12/15 09:40:43;;;;;;;87.37;50.33;;;;;;;0.50;84.81;99270.76;125236;1098;65159;-81
2020/12/15 09:43:09;;;;;;;80.50;47.47;;;;;;;0.53;84.96;99279.44;124880;1100;65134;-82
2020/12/15 09:45:36;;;;;;;75.70;45.17;;;;;;;0.59;85.33;99274.05;125204;1098;65293;-81
2020/12/15 09:48:02;;;;;;;76.60;43.27;;;;;;;0.69;84.93;99273.86;125361;1098;65355;-80
2020/12/15 09:50:30;;;;;;;78.90;46.35;;;;;;;0.76;84.69;99268.41;124871;1098;65281;-80
2020/12/15 09:52:58;;;;;;;80.73;46.23;;;;;;;0.82;85.11;99262.19;124889;1100;65193;-81
2020/12/15 09:55:24;;;;;;;77.77;44.20;;;;;;;0.91;84.77;99253.23;124859;1100;65137;-81
2020/12/15 09:57:50;;;;;;;77.87;44.43;;;;;;;0.89;84.41;99258.50;125192;1098;65277;-80
2020/12/15 10:00:17;;;;;;;72.43;43.77;;;;;;;0.85;84.78;99268.22;125349;1099;65150;-80
2020/12/15 10:02:43;;;;;;;75.77;46.03;;;;;;;0.89;84.41;99271.63;124911;1100;65192;-81
2020/12/15 10:05:10;;;;;;;82.93;51.53;;;;;;;0.96;84.31;99264.48;124895;1100;65233;-81
2020/12/15 10:07:38;;;;;;;69.30;44.20;;;;;;;1.06;84.50;99261.60;124883;1100;65140;-82
2020/12/15 10:10:05;;;;;;;77.23;48.57;;;;;;;1.10;84.02;99263.23;125304;1099;65152;-82
2020/12/15 10:12:32;;;;;;;75.33;45.87;;;;;;;1.13;84.61;99271.94;124906;1098;65173;-82
2020/12/15 10:15:01;;;;;;;75.12;47.40;;;;;;;1.18;84.14;99275.31;124931;1100;65159;-82
2020/12/15 10:17:28;;;;;;;89.10;45.77;;;;;;;1.13;83.88;99271.94;124867;1100;65154;-82
2020/12/15 10:19:55;;;;;;;85.50;44.77;;;;;;;1.06;84.31;99276.49;125242;1099;65252;-82
2020/12/15 10:22:21;;;;;;;92.43;47.50;;;;;;;1.06;84.34;99266.85;124863;1100;65201;-82
2020/12/15 10:24:48;;;;;;;95.80;48.00;;;;;;;1.09;84.21;99273.79;124909;1100;65210;-82
2020/12/15 10:27:14;;;;;;;92.45;47.43;;;;;;;1.06;84.09;99268.62;125313;1099;65117;-82
2020/12/15 10:29:41;;;;;;;90.37;46.37;;;;;;;1.03;84.17;99271.32;124872;1100;65214;-81
2020/12/15 10:32:07;;;;;;;81.65;45.55;;;;;;;1.02;83.84;99261.70;124924;1098;65158;-82
2020/12/15 10:34:33;;;;;;;91.57;49.70;;;;;;;1.02;84.48;99270.44;124934;1098;65239;-81
2020/12/15 10:37:00;;;;;;;100.27;50.77;;;;;;;1.05;84.38;99262.52;124936;1100;65182;-82
2020/12/15 10:39:26;;;;;;;93.03;49.87;;;;;;;1.03;84.03;99261.68;124901;1100;65197;-82
2020/12/15 10:41:53;;;;;;;83.97;48.53;;;;;;;1.04;84.13;99257.29;125321;1098;65221;-82
2020/12/15 10:44:19;;;;;;;87.40;51.85;;;;;;;1.04;84.19;99259.91;125326;1098;65147;-81
2020/12/15 10:46:46;;;;;;;91.20;55.60;;;;;;;1.08;84.41;99257.19;124856;1100;65144;-82
2020/12/15 10:49:15;;;;;;;82.90;46.00;;;;;;;1.15;84.19;99252.63;125256;1098;65249;-82
2020/12/15 10:51:42;;;;;;;82.93;46.13;;;;;;;1.23;83.79;99255.92;125332;1098;65159;-80
2020/12/15 10:54:09;;;;;;;71.10;43.43;;;;;;;1.26;84.14;99249.73;124879;1098;65204;-80
2020/12/15 10:56:35;;;;;;;73.60;42.50;;;;;;;1.32;83.77;99241.73;124845;1100;65133;-81
2020/12/15 10:59:02;;;;;;;75.27;42.73;;;;;;;1.35;83.30;99239.02;124899;1100;65159;-80
2020/12/15 11:01:28;;;;;;;70.57;41.73;;;;;;;1.36;83.36;99235.48;125349;1098;65355;-81
2020/12/15 11:03:56;;;;;;;69.03;41.20;;;;;;;1.39;83.25;99231.91;124878;1099;65258;-81
2020/12/15 11:06:25;;;;;;;84.90;48.40;;;;;;;1.38;82.74;99232.83;124826;1100;65049;-80
2020/12/15 11:08:52;;;;;;;101.17;53.77;;;;;;;1.36;83.77;99226.75;124883;1099;65126;-81
2020/12/15 11:11:19;;;;;;;105.07;55.63;;;;;;;1.38;83.31;99235.45;125325;1098;65150;-81
2020/12/15 11:13:46;;;;;;;92.43;49.17;;;;;;;1.42;83.28;99227.46;125208;1099;65183;-82
2020/12/15 11:16:13;;;;;;;100.83;54.07;;;;;;;1.49;83.86;99229.00;124924;1100;65338;-81
2020/12/15 11:18:39;;;;;;;92.60;52.20;;;;;;;1.59;83.30;99228.78;124884;1100;65225;-81
2020/12/15 11:21:06;;;;;;;108.83;55.40;;;;;;;1.64;83.79;99226.89;125329;1099;65207;-81